Barnstead, New Hampshire
Current Conditions -  °F | °C
As of 8:51 PM on Saturday 20 Dec 2014 (Local Time) from KCON Reporting Station
Overcast Overcast  
Wind Chill: 25°   Ceiling: 3200
Heat Index: 31°   Visibility: 10mi
Dew Point: 22°   Wind: 6mph
Humidity: 69%   Direction: 70°ENE
Pressure: 30.32"   Gusts: NA
Location:  43.33°N, 71.29°W
Report Text: KCON 210151Z AUTO 07005KT 10SM OVC032 M01/M06 A3032 RMK AO2 SLP273 T10061056
Loading
Personal Weather Stations






























Interactive Weather Map New forecast layout! Learn more

10-Day Weather Forecast

Advertisements
Track Severe Weather on mobile